sensor_id;sensor_type;location;lat;lon;timestamp;P1;durP1;ratioP1;P2;durP2;ratioP2
70406;SDS011;57821;52.202;0.154;2022-10-16T00:01:18;19.35;;;3.53;;
70406;SDS011;57821;52.202;0.154;2022-10-16T00:03:47;21.63;;;3.05;;
70406;SDS011;57821;52.202;0.154;2022-10-16T00:06:15;20.65;;;3.50;;
70406;SDS011;57821;52.202;0.154;2022-10-16T00:08:43;18.92;;;2.92;;
70406;SDS011;57821;52.202;0.154;2022-10-16T00:11:11;18.38;;;3.80;;
70406;SDS011;57821;52.202;0.154;2022-10-16T00:13:49;18.88;;;3.58;;
70406;SDS011;57821;52.202;0.154;2022-10-16T00:16:17;18.70;;;2.88;;
70406;SDS011;57821;52.202;0.154;2022-10-16T00:18:44;19.20;;;3.17;;
70406;SDS011;57821;52.202;0.154;2022-10-16T00:21:15;16.38;;;2.85;;
70406;SDS011;57821;52.202;0.154;2022-10-16T00:23:44;15.98;;;2.63;;
70406;SDS011;57821;52.202;0.154;2022-10-16T00:26:12;15.20;;;2.45;;
70406;SDS011;57821;52.202;0.154;2022-10-16T00:28:41;16.67;;;2.78;;
70406;SDS011;57821;52.202;0.154;2022-10-16T00:31:08;15.77;;;2.53;;
70406;SDS011;57821;52.202;0.154;2022-10-16T00:33:38;15.63;;;3.63;;
70406;SDS011;57821;52.202;0.154;2022-10-16T00:36:06;19.40;;;3.28;;
70406;SDS011;57821;52.202;0.154;2022-10-16T00:38:33;22.00;;;2.65;;
70406;SDS011;57821;52.202;0.154;2022-10-16T00:41:00;17.25;;;2.63;;
70406;SDS011;57821;52.202;0.154;2022-10-16T00:43:34;22.25;;;2.80;;
70406;SDS011;57821;52.202;0.154;2022-10-16T00:46:11;15.23;;;2.70;;
70406;SDS011;57821;52.202;0.154;2022-10-16T00:48:39;12.43;;;2.25;;
70406;SDS011;57821;52.202;0.154;2022-10-16T00:51:06;18.45;;;2.97;;
70406;SDS011;57821;52.202;0.154;2022-10-16T00:53:33;15.63;;;2.60;;
70406;SDS011;57821;52.202;0.154;2022-10-16T00:56:01;17.52;;;3.22;;
70406;SDS011;57821;52.202;0.154;2022-10-16T00:58:29;14.70;;;2.47;;
70406;SDS011;57821;52.202;0.154;2022-10-16T01:00:55;19.05;;;3.15;;
70406;SDS011;57821;52.202;0.154;2022-10-16T01:03:32;15.88;;;2.35;;
70406;SDS011;57821;52.202;0.154;2022-10-16T01:06:08;11.52;;;2.28;;
70406;SDS011;57821;52.202;0.154;2022-10-16T01:11:38;11.23;;;2.50;;
70406;SDS011;57821;52.202;0.154;2022-10-16T01:14:11;16.60;;;2.70;;
70406;SDS011;57821;52.202;0.154;2022-10-16T01:16:49;18.70;;;2.30;;
70406;SDS011;57821;52.202;0.154;2022-10-16T01:19:26;12.95;;;2.13;;
70406;SDS011;57821;52.202;0.154;2022-10-16T01:21:59;19.85;;;2.55;;
70406;SDS011;57821;52.202;0.154;2022-10-16T01:29:30;17.45;;;3.35;;
70406;SDS011;57821;52.202;0.154;2022-10-16T01:34:52;8.27;;;1.65;;
70406;SDS011;57821;52.202;0.154;2022-10-16T01:37:44;14.77;;;2.08;;
70406;SDS011;57821;52.202;0.154;2022-10-16T01:40:16;12.30;;;2.17;;
70406;SDS011;57821;52.202;0.154;2022-10-16T01:42:50;15.07;;;2.70;;
70406;SDS011;57821;52.202;0.154;2022-10-16T01:45:22;18.02;;;2.13;;
70406;SDS011;57821;52.202;0.154;2022-10-16T01:47:49;21.38;;;2.45;;
70406;SDS011;57821;52.202;0.154;2022-10-16T01:50:18;13.60;;;3.15;;
70406;SDS011;57821;52.202;0.154;2022-10-16T01:52:47;16.90;;;3.03;;
70406;SDS011;57821;52.202;0.154;2022-10-16T01:55:24;18.58;;;2.30;;
70406;SDS011;57821;52.202;0.154;2022-10-16T01:57:55;15.88;;;2.22;;
70406;SDS011;57821;52.202;0.154;2022-10-16T02:00:25;15.90;;;2.30;;
70406;SDS011;57821;52.202;0.154;2022-10-16T02:02:53;12.68;;;2.60;;
70406;SDS011;57821;52.202;0.154;2022-10-16T02:05:23;16.30;;;2.22;;
70406;SDS011;57821;52.202;0.154;2022-10-16T02:07:54;14.48;;;2.30;;
70406;SDS011;57821;52.202;0.154;2022-10-16T02:10:20;16.02;;;2.45;;
70406;SDS011;57821;52.202;0.154;2022-10-16T02:12:49;16.90;;;2.92;;
70406;SDS011;57821;52.202;0.154;2022-10-16T02:15:22;15.18;;;2.60;;
70406;SDS011;57821;52.202;0.154;2022-10-16T02:17:48;14.57;;;2.22;;
70406;SDS011;57821;52.202;0.154;2022-10-16T02:20:15;17.90;;;2.60;;
70406;SDS011;57821;52.202;0.154;2022-10-16T02:22:45;11.88;;;2.10;;
70406;SDS011;57821;52.202;0.154;2022-10-16T02:25:19;23.08;;;3.45;;
70406;SDS011;57821;52.202;0.154;2022-10-16T02:27:53;20.33;;;3.95;;
70406;SDS011;57821;52.202;0.154;2022-10-16T02:35:26;19.50;;;2.63;;
70406;SDS011;57821;52.202;0.154;2022-10-16T02:37:53;17.05;;;2.55;;
70406;SDS011;57821;52.202;0.154;2022-10-16T02:40:22;16.65;;;3.63;;
70406;SDS011;57821;52.202;0.154;2022-10-16T02:42:51;15.75;;;1.80;;
70406;SDS011;57821;52.202;0.154;2022-10-16T02:45:19;13.60;;;2.30;;
70406;SDS011;57821;52.202;0.154;2022-10-16T02:47:46;15.68;;;3.00;;
70406;SDS011;57821;52.202;0.154;2022-10-16T02:50:12;14.18;;;2.50;;
70406;SDS011;57821;52.202;0.154;2022-10-16T02:52:39;14.75;;;2.63;;
70406;SDS011;57821;52.202;0.154;2022-10-16T02:55:06;16.75;;;3.22;;
70406;SDS011;57821;52.202;0.154;2022-10-16T02:57:33;14.75;;;2.30;;
70406;SDS011;57821;52.202;0.154;2022-10-16T02:59:59;16.75;;;2.35;;
70406;SDS011;57821;52.202;0.154;2022-10-16T03:02:26;14.52;;;2.75;;
70406;SDS011;57821;52.202;0.154;2022-10-16T03:04:52;14.73;;;1.98;;
70406;SDS011;57821;52.202;0.154;2022-10-16T03:07:19;11.57;;;1.60;;
70406;SDS011;57821;52.202;0.154;2022-10-16T03:09:45;15.18;;;2.20;;
70406;SDS011;57821;52.202;0.154;2022-10-16T03:12:12;18.95;;;2.50;;
70406;SDS011;57821;52.202;0.154;2022-10-16T03:14:38;24.38;;;2.85;;
70406;SDS011;57821;52.202;0.154;2022-10-16T03:17:05;14.75;;;2.30;;
70406;SDS011;57821;52.202;0.154;2022-10-16T03:19:32;13.55;;;2.20;;
70406;SDS011;57821;52.202;0.154;2022-10-16T03:21:58;13.80;;;2.45;;
70406;SDS011;57821;52.202;0.154;2022-10-16T03:24:24;17.45;;;3.03;;
70406;SDS011;57821;52.202;0.154;2022-10-16T03:26:51;16.60;;;2.53;;
70406;SDS011;57821;52.202;0.154;2022-10-16T03:29:17;12.63;;;2.08;;
70406;SDS011;57821;52.202;0.154;2022-10-16T03:31:44;15.75;;;2.20;;
70406;SDS011;57821;52.202;0.154;2022-10-16T03:34:10;11.80;;;1.90;;
70406;SDS011;57821;52.202;0.154;2022-10-16T03:36:37;12.20;;;2.05;;
70406;SDS011;57821;52.202;0.154;2022-10-16T03:39:03;14.68;;;2.20;;
70406;SDS011;57821;52.202;0.154;2022-10-16T03:41:29;14.52;;;2.05;;
70406;SDS011;57821;52.202;0.154;2022-10-16T03:43:56;14.60;;;2.20;;
70406;SDS011;57821;52.202;0.154;2022-10-16T03:46:22;18.75;;;2.47;;
70406;SDS011;57821;52.202;0.154;2022-10-16T03:48:49;12.43;;;2.63;;
70406;SDS011;57821;52.202;0.154;2022-10-16T03:51:15;14.75;;;1.98;;
70406;SDS011;57821;52.202;0.154;2022-10-16T03:53:42;16.00;;;1.98;;
70406;SDS011;57821;52.202;0.154;2022-10-16T03:56:08;16.08;;;2.72;;
70406;SDS011;57821;52.202;0.154;2022-10-16T03:58:35;11.95;;;1.90;;
70406;SDS011;57821;52.202;0.154;2022-10-16T04:01:01;14.95;;;2.78;;
70406;SDS011;57821;52.202;0.154;2022-10-16T04:03:28;10.95;;;1.73;;
70406;SDS011;57821;52.202;0.154;2022-10-16T04:05:54;14.00;;;2.38;;
70406;SDS011;57821;52.202;0.154;2022-10-16T04:08:21;22.33;;;1.85;;
70406;SDS011;57821;52.202;0.154;2022-10-16T04:10:47;15.75;;;2.03;;
70406;SDS011;57821;52.202;0.154;2022-10-16T04:13:14;12.75;;;1.83;;
70406;SDS011;57821;52.202;0.154;2022-10-16T04:15:40;9.77;;;1.90;;
70406;SDS011;57821;52.202;0.154;2022-10-16T04:18:07;11.23;;;2.20;;
70406;SDS011;57821;52.202;0.154;2022-10-16T04:20:33;13.40;;;2.17;;
70406;SDS011;57821;52.202;0.154;2022-10-16T04:23:00;14.27;;;2.97;;
70406;SDS011;57821;52.202;0.154;2022-10-16T04:25:26;11.80;;;1.88;;
70406;SDS011;57821;52.202;0.154;2022-10-16T04:27:53;15.35;;;3.13;;
70406;SDS011;57821;52.202;0.154;2022-10-16T04:30:21;19.15;;;2.35;;
70406;SDS011;57821;52.202;0.154;2022-10-16T04:32:48;12.40;;;1.95;;
70406;SDS011;57821;52.202;0.154;2022-10-16T04:35:16;12.30;;;1.90;;
70406;SDS011;57821;52.202;0.154;2022-10-16T04:37:43;14.07;;;2.13;;
70406;SDS011;57821;52.202;0.154;2022-10-16T04:40:10;9.35;;;1.60;;
70406;SDS011;57821;52.202;0.154;2022-10-16T04:42:36;10.02;;;1.92;;
70406;SDS011;57821;52.202;0.154;2022-10-16T04:45:04;14.68;;;2.20;;
70406;SDS011;57821;52.202;0.154;2022-10-16T04:47:32;14.25;;;2.13;;
70406;SDS011;57821;52.202;0.154;2022-10-16T04:49:58;13.82;;;2.58;;
70406;SDS011;57821;52.202;0.154;2022-10-16T04:52:24;11.18;;;1.65;;
70406;SDS011;57821;52.202;0.154;2022-10-16T04:54:51;10.82;;;1.90;;
70406;SDS011;57821;52.202;0.154;2022-10-16T04:57:17;9.68;;;1.73;;
70406;SDS011;57821;52.202;0.154;2022-10-16T04:59:44;11.25;;;2.00;;
70406;SDS011;57821;52.202;0.154;2022-10-16T05:02:10;16.52;;;2.10;;
70406;SDS011;57821;52.202;0.154;2022-10-16T05:04:37;10.30;;;1.70;;
70406;SDS011;57821;52.202;0.154;2022-10-16T05:07:03;15.55;;;2.33;;
70406;SDS011;57821;52.202;0.154;2022-10-16T05:09:30;18.17;;;3.13;;
70406;SDS011;57821;52.202;0.154;2022-10-16T05:11:56;12.77;;;1.70;;
70406;SDS011;57821;52.202;0.154;2022-10-16T05:14:23;12.00;;;1.75;;
70406;SDS011;57821;52.202;0.154;2022-10-16T05:16:49;14.13;;;2.63;;
70406;SDS011;57821;52.202;0.154;2022-10-16T05:19:15;7.90;;;1.42;;
70406;SDS011;57821;52.202;0.154;2022-10-16T05:21:57;12.18;;;1.98;;
70406;SDS011;57821;52.202;0.154;2022-10-16T05:24:24;13.60;;;2.17;;
70406;SDS011;57821;52.202;0.154;2022-10-16T05:26:51;14.43;;;1.90;;
70406;SDS011;57821;52.202;0.154;2022-10-16T05:29:18;11.35;;;1.77;;
70406;SDS011;57821;52.202;0.154;2022-10-16T05:31:44;15.43;;;2.63;;
70406;SDS011;57821;52.202;0.154;2022-10-16T05:34:11;13.65;;;2.08;;
70406;SDS011;57821;52.202;0.154;2022-10-16T05:36:37;12.30;;;1.92;;
70406;SDS011;57821;52.202;0.154;2022-10-16T05:39:04;12.80;;;1.67;;
70406;SDS011;57821;52.202;0.154;2022-10-16T05:41:30;14.90;;;1.90;;
70406;SDS011;57821;52.202;0.154;2022-10-16T05:43:57;13.10;;;2.05;;
70406;SDS011;57821;52.202;0.154;2022-10-16T05:46:23;18.17;;;2.20;;
70406;SDS011;57821;52.202;0.154;2022-10-16T05:48:51;14.88;;;2.28;;
70406;SDS011;57821;52.202;0.154;2022-10-16T05:51:18;12.75;;;2.03;;
70406;SDS011;57821;52.202;0.154;2022-10-16T05:53:45;14.25;;;1.95;;
70406;SDS011;57821;52.202;0.154;2022-10-16T05:56:11;9.05;;;1.63;;
70406;SDS011;57821;52.202;0.154;2022-10-16T05:58:38;10.30;;;2.25;;
70406;SDS011;57821;52.202;0.154;2022-10-16T06:01:12;12.63;;;2.10;;
70406;SDS011;57821;52.202;0.154;2022-10-16T06:03:40;13.77;;;1.98;;
70406;SDS011;57821;52.202;0.154;2022-10-16T06:06:08;16.25;;;3.22;;
70406;SDS011;57821;52.202;0.154;2022-10-16T06:08:38;9.40;;;1.45;;
70406;SDS011;57821;52.202;0.154;2022-10-16T06:11:09;15.65;;;1.90;;
70406;SDS011;57821;52.202;0.154;2022-10-16T06:13:37;11.25;;;1.85;;
70406;SDS011;57821;52.202;0.154;2022-10-16T06:16:04;15.82;;;2.53;;
70406;SDS011;57821;52.202;0.154;2022-10-16T06:18:31;11.80;;;1.70;;
70406;SDS011;57821;52.202;0.154;2022-10-16T06:20:57;14.05;;;1.88;;
70406;SDS011;57821;52.202;0.154;2022-10-16T06:23:24;15.68;;;2.17;;
70406;SDS011;57821;52.202;0.154;2022-10-16T06:25:51;16.48;;;2.40;;
70406;SDS011;57821;52.202;0.154;2022-10-16T06:28:17;14.10;;;2.40;;
70406;SDS011;57821;52.202;0.154;2022-10-16T06:30:44;14.50;;;1.70;;
70406;SDS011;57821;52.202;0.154;2022-10-16T06:33:11;15.75;;;2.50;;
70406;SDS011;57821;52.202;0.154;2022-10-16T06:35:38;13.02;;;1.83;;
70406;SDS011;57821;52.202;0.154;2022-10-16T06:38:04;17.25;;;1.83;;
70406;SDS011;57821;52.202;0.154;2022-10-16T06:40:31;9.45;;;2.13;;
70406;SDS011;57821;52.202;0.154;2022-10-16T06:42:58;14.95;;;2.30;;
70406;SDS011;57821;52.202;0.154;2022-10-16T06:45:25;15.00;;;2.10;;
70406;SDS011;57821;52.202;0.154;2022-10-16T06:47:51;10.60;;;1.90;;
70406;SDS011;57821;52.202;0.154;2022-10-16T06:50:18;9.38;;;1.80;;
70406;SDS011;57821;52.202;0.154;2022-10-16T06:52:44;18.38;;;2.05;;
70406;SDS011;57821;52.202;0.154;2022-10-16T06:55:11;14.10;;;2.00;;
70406;SDS011;57821;52.202;0.154;2022-10-16T06:57:37;13.60;;;2.15;;
70406;SDS011;57821;52.202;0.154;2022-10-16T07:00:04;11.65;;;2.30;;
70406;SDS011;57821;52.202;0.154;2022-10-16T07:02:31;17.90;;;2.35;;
70406;SDS011;57821;52.202;0.154;2022-10-16T07:04:57;13.63;;;1.80;;
70406;SDS011;57821;52.202;0.154;2022-10-16T07:07:24;18.40;;;2.85;;
70406;SDS011;57821;52.202;0.154;2022-10-16T07:09:50;10.05;;;2.13;;
70406;SDS011;57821;52.202;0.154;2022-10-16T07:12:17;10.05;;;1.77;;
70406;SDS011;57821;52.202;0.154;2022-10-16T07:14:44;12.80;;;1.80;;
70406;SDS011;57821;52.202;0.154;2022-10-16T07:17:11;17.50;;;2.05;;
70406;SDS011;57821;52.202;0.154;2022-10-16T07:19:37;15.85;;;2.90;;
70406;SDS011;57821;52.202;0.154;2022-10-16T07:22:04;14.70;;;1.95;;
70406;SDS011;57821;52.202;0.154;2022-10-16T07:24:30;12.02;;;1.83;;
70406;SDS011;57821;52.202;0.154;2022-10-16T07:26:56;9.27;;;1.67;;
70406;SDS011;57821;52.202;0.154;2022-10-16T07:29:23;16.38;;;1.85;;
70406;SDS011;57821;52.202;0.154;2022-10-16T07:31:49;14.50;;;2.80;;
70406;SDS011;57821;52.202;0.154;2022-10-16T07:34:17;15.10;;;2.65;;
70406;SDS011;57821;52.202;0.154;2022-10-16T07:36:47;16.58;;;2.50;;
70406;SDS011;57821;52.202;0.154;2022-10-16T07:39:14;19.38;;;2.90;;
70406;SDS011;57821;52.202;0.154;2022-10-16T07:41:40;14.25;;;2.65;;
70406;SDS011;57821;52.202;0.154;2022-10-16T07:44:07;16.27;;;2.90;;
70406;SDS011;57821;52.202;0.154;2022-10-16T07:46:33;9.45;;;1.83;;
70406;SDS011;57821;52.202;0.154;2022-10-16T07:49:02;13.93;;;2.10;;
70406;SDS011;57821;52.202;0.154;2022-10-16T07:51:29;16.55;;;3.13;;
70406;SDS011;57821;52.202;0.154;2022-10-16T07:53:55;13.32;;;2.80;;
70406;SDS011;57821;52.202;0.154;2022-10-16T07:56:21;12.82;;;1.95;;
70406;SDS011;57821;52.202;0.154;2022-10-16T07:58:49;14.00;;;1.90;;
70406;SDS011;57821;52.202;0.154;2022-10-16T08:01:16;13.93;;;2.10;;
70406;SDS011;57821;52.202;0.154;2022-10-16T08:03:44;12.13;;;1.98;;
70406;SDS011;57821;52.202;0.154;2022-10-16T08:06:12;13.68;;;2.67;;
70406;SDS011;57821;52.202;0.154;2022-10-16T08:08:39;13.25;;;2.08;;
70406;SDS011;57821;52.202;0.154;2022-10-16T08:11:06;13.10;;;2.22;;
70406;SDS011;57821;52.202;0.154;2022-10-16T08:13:32;19.40;;;2.30;;
70406;SDS011;57821;52.202;0.154;2022-10-16T08:15:59;14.65;;;2.38;;
70406;SDS011;57821;52.202;0.154;2022-10-16T08:18:25;14.20;;;2.30;;
70406;SDS011;57821;52.202;0.154;2022-10-16T08:20:56;17.23;;;2.13;;
70406;SDS011;57821;52.202;0.154;2022-10-16T08:23:23;14.45;;;1.95;;
70406;SDS011;57821;52.202;0.154;2022-10-16T08:25:50;12.65;;;1.73;;
70406;SDS011;57821;52.202;0.154;2022-10-16T08:28:17;13.10;;;1.80;;
70406;SDS011;57821;52.202;0.154;2022-10-16T08:30:43;12.90;;;1.83;;
70406;SDS011;57821;52.202;0.154;2022-10-16T08:33:10;13.77;;;2.60;;
70406;SDS011;57821;52.202;0.154;2022-10-16T08:35:37;13.20;;;2.42;;
70406;SDS011;57821;52.202;0.154;2022-10-16T08:38:04;18.10;;;3.25;;
70406;SDS011;57821;52.202;0.154;2022-10-16T08:40:31;12.93;;;1.90;;
70406;SDS011;57821;52.202;0.154;2022-10-16T08:43:34;13.77;;;2.28;;
70406;SDS011;57821;52.202;0.154;2022-10-16T08:51:20;14.65;;;1.77;;
70406;SDS011;57821;52.202;0.154;2022-10-16T08:53:56;13.25;;;2.38;;
70406;SDS011;57821;52.202;0.154;2022-10-16T08:56:25;10.52;;;1.73;;
70406;SDS011;57821;52.202;0.154;2022-10-16T08:58:52;13.60;;;2.55;;
70406;SDS011;57821;52.202;0.154;2022-10-16T09:01:37;10.43;;;1.85;;
70406;SDS011;57821;52.202;0.154;2022-10-16T09:04:16;10.68;;;2.00;;
70406;SDS011;57821;52.202;0.154;2022-10-16T09:07:08;9.10;;;1.83;;
70406;SDS011;57821;52.202;0.154;2022-10-16T09:12:54;9.55;;;1.55;;
70406;SDS011;57821;52.202;0.154;2022-10-16T09:15:30;8.95;;;1.70;;
70406;SDS011;57821;52.202;0.154;2022-10-16T09:25:47;10.82;;;1.45;;
70406;SDS011;57821;52.202;0.154;2022-10-16T09:28:17;9.43;;;2.10;;
70406;SDS011;57821;52.202;0.154;2022-10-16T09:30:44;9.43;;;2.20;;
70406;SDS011;57821;52.202;0.154;2022-10-16T09:33:12;9.55;;;1.48;;
70406;SDS011;57821;52.202;0.154;2022-10-16T09:35:40;14.35;;;2.58;;
70406;SDS011;57821;52.202;0.154;2022-10-16T09:38:20;9.60;;;1.55;;
70406;SDS011;57821;52.202;0.154;2022-10-16T09:41:26;6.90;;;1.92;;
70406;SDS011;57821;52.202;0.154;2022-10-16T09:43:55;11.18;;;1.70;;
70406;SDS011;57821;52.202;0.154;2022-10-16T09:46:26;12.10;;;1.95;;
70406;SDS011;57821;52.202;0.154;2022-10-16T09:48:56;7.03;;;1.50;;
70406;SDS011;57821;52.202;0.154;2022-10-16T09:51:26;8.23;;;1.70;;
70406;SDS011;57821;52.202;0.154;2022-10-16T09:53:56;8.70;;;1.42;;
70406;SDS011;57821;52.202;0.154;2022-10-16T09:56:29;10.60;;;1.50;;
70406;SDS011;57821;52.202;0.154;2022-10-16T09:59:01;8.70;;;1.52;;
70406;SDS011;57821;52.202;0.154;2022-10-16T10:01:45;8.77;;;2.38;;
70406;SDS011;57821;52.202;0.154;2022-10-16T10:04:14;10.30;;;1.50;;
70406;SDS011;57821;52.202;0.154;2022-10-16T10:06:43;9.50;;;1.75;;
70406;SDS011;57821;52.202;0.154;2022-10-16T10:09:21;9.75;;;1.80;;
70406;SDS011;57821;52.202;0.154;2022-10-16T10:11:52;9.20;;;1.83;;
70406;SDS011;57821;52.202;0.154;2022-10-16T10:16:49;10.02;;;1.63;;
70406;SDS011;57821;52.202;0.154;2022-10-16T10:19:20;9.10;;;1.83;;
70406;SDS011;57821;52.202;0.154;2022-10-16T10:21:49;10.80;;;1.70;;
70406;SDS011;57821;52.202;0.154;2022-10-16T10:24:17;9.75;;;1.55;;
70406;SDS011;57821;52.202;0.154;2022-10-16T10:26:49;8.55;;;1.35;;
70406;SDS011;57821;52.202;0.154;2022-10-16T10:29:27;13.65;;;1.60;;
70406;SDS011;57821;52.202;0.154;2022-10-16T10:34:47;7.22;;;1.13;;
70406;SDS011;57821;52.202;0.154;2022-10-16T10:40:15;6.63;;;0.90;;
70406;SDS011;57821;52.202;0.154;2022-10-16T10:42:59;10.38;;;1.55;;
70406;SDS011;57821;52.202;0.154;2022-10-16T10:45:51;6.95;;;1.05;;
70406;SDS011;57821;52.202;0.154;2022-10-16T10:48:23;3.97;;;0.80;;
70406;SDS011;57821;52.202;0.154;2022-10-16T10:51:18;6.10;;;1.02;;
70406;SDS011;57821;52.202;0.154;2022-10-16T10:53:57;11.73;;;1.25;;
70406;SDS011;57821;52.202;0.154;2022-10-16T10:59:28;5.95;;;1.08;;
70406;SDS011;57821;52.202;0.154;2022-10-16T11:07:48;6.38;;;0.90;;
70406;SDS011;57821;52.202;0.154;2022-10-16T11:10:20;5.93;;;1.00;;
70406;SDS011;57821;52.202;0.154;2022-10-16T11:13:04;11.85;;;1.10;;
70406;SDS011;57821;52.202;0.154;2022-10-16T11:15:42;8.70;;;1.08;;
70406;SDS011;57821;52.202;0.154;2022-10-16T11:18:22;8.82;;;1.27;;
70406;SDS011;57821;52.202;0.154;2022-10-16T11:20:57;8.40;;;1.15;;
70406;SDS011;57821;52.202;0.154;2022-10-16T11:23:37;8.90;;;1.33;;
70406;SDS011;57821;52.202;0.154;2022-10-16T11:26:11;8.30;;;1.20;;
70406;SDS011;57821;52.202;0.154;2022-10-16T11:28:47;8.82;;;1.33;;
70406;SDS011;57821;52.202;0.154;2022-10-16T11:31:17;7.50;;;1.10;;
70406;SDS011;57821;52.202;0.154;2022-10-16T11:37:00;5.28;;;0.90;;
70406;SDS011;57821;52.202;0.154;2022-10-16T11:39:38;9.68;;;2.30;;
70406;SDS011;57821;52.202;0.154;2022-10-16T11:45:02;7.30;;;0.95;;
70406;SDS011;57821;52.202;0.154;2022-10-16T11:47:50;6.70;;;1.25;;
70406;SDS011;57821;52.202;0.154;2022-10-16T11:53:09;14.00;;;1.88;;
70406;SDS011;57821;52.202;0.154;2022-10-16T11:55:57;7.78;;;1.20;;
70406;SDS011;57821;52.202;0.154;2022-10-16T11:58:28;8.52;;;1.30;;
70406;SDS011;57821;52.202;0.154;2022-10-16T12:03:31;7.28;;;1.00;;
70406;SDS011;57821;52.202;0.154;2022-10-16T12:09:17;8.15;;;1.08;;
70406;SDS011;57821;52.202;0.154;2022-10-16T12:11:48;7.00;;;1.10;;
70406;SDS011;57821;52.202;0.154;2022-10-16T12:19:17;4.80;;;0.80;;
70406;SDS011;57821;52.202;0.154;2022-10-16T12:21:44;9.20;;;1.42;;
70406;SDS011;57821;52.202;0.154;2022-10-16T12:24:22;8.68;;;1.25;;
70406;SDS011;57821;52.202;0.154;2022-10-16T12:26:56;6.35;;;1.00;;
70406;SDS011;57821;52.202;0.154;2022-10-16T12:29:32;8.13;;;1.83;;
70406;SDS011;57821;52.202;0.154;2022-10-16T12:32:02;6.88;;;1.30;;
70406;SDS011;57821;52.202;0.154;2022-10-16T12:35:05;6.10;;;1.40;;
70406;SDS011;57821;52.202;0.154;2022-10-16T12:37:44;9.98;;;1.65;;
70406;SDS011;57821;52.202;0.154;2022-10-16T12:40:33;9.50;;;1.25;;
70406;SDS011;57821;52.202;0.154;2022-10-16T12:42:59;8.98;;;1.40;;
70406;SDS011;57821;52.202;0.154;2022-10-16T12:46:04;5.70;;;1.20;;
70406;SDS011;57821;52.202;0.154;2022-10-16T12:48:46;8.80;;;1.13;;
70406;SDS011;57821;52.202;0.154;2022-10-16T12:57:12;8.02;;;0.90;;
70406;SDS011;57821;52.202;0.154;2022-10-16T13:05:25;8.52;;;1.20;;
70406;SDS011;57821;52.202;0.154;2022-10-16T13:07:56;11.98;;;1.67;;
70406;SDS011;57821;52.202;0.154;2022-10-16T13:19:17;5.68;;;1.10;;
70406;SDS011;57821;52.202;0.154;2022-10-16T13:29:54;6.20;;;1.08;;
70406;SDS011;57821;52.202;0.154;2022-10-16T13:32:27;5.90;;;1.27;;
70406;SDS011;57821;52.202;0.154;2022-10-16T13:34:54;9.98;;;1.80;;
70406;SDS011;57821;52.202;0.154;2022-10-16T13:37:24;9.75;;;1.73;;
70406;SDS011;57821;52.202;0.154;2022-10-16T13:40:01;11.20;;;2.07;;
70406;SDS011;57821;52.202;0.154;2022-10-16T13:42:37;9.13;;;1.58;;
70406;SDS011;57821;52.202;0.154;2022-10-16T13:45:04;8.07;;;2.28;;
70406;SDS011;57821;52.202;0.154;2022-10-16T13:47:31;7.05;;;1.58;;
70406;SDS011;57821;52.202;0.154;2022-10-16T13:50:05;9.25;;;1.73;;
70406;SDS011;57821;52.202;0.154;2022-10-16T13:52:37;10.93;;;2.00;;
70406;SDS011;57821;52.202;0.154;2022-10-16T13:55:04;9.15;;;1.80;;
70406;SDS011;57821;52.202;0.154;2022-10-16T13:57:37;9.30;;;2.08;;
70406;SDS011;57821;52.202;0.154;2022-10-16T14:00:16;10.75;;;1.48;;
70406;SDS011;57821;52.202;0.154;2022-10-16T14:02:44;15.65;;;2.00;;
70406;SDS011;57821;52.202;0.154;2022-10-16T14:05:13;13.38;;;1.75;;
70406;SDS011;57821;52.202;0.154;2022-10-16T14:07:40;10.70;;;1.88;;
70406;SDS011;57821;52.202;0.154;2022-10-16T14:13:07;10.73;;;1.73;;
70406;SDS011;57821;52.202;0.154;2022-10-16T14:15:45;13.70;;;2.20;;
70406;SDS011;57821;52.202;0.154;2022-10-16T14:18:16;11.00;;;1.63;;
70406;SDS011;57821;52.202;0.154;2022-10-16T14:20:46;5.85;;;1.40;;
70406;SDS011;57821;52.202;0.154;2022-10-16T14:23:20;10.93;;;1.80;;
70406;SDS011;57821;52.202;0.154;2022-10-16T14:28:37;9.80;;;2.00;;
70406;SDS011;57821;52.202;0.154;2022-10-16T14:31:19;15.30;;;2.20;;
70406;SDS011;57821;52.202;0.154;2022-10-16T14:33:48;11.77;;;1.95;;
70406;SDS011;57821;52.202;0.154;2022-10-16T14:36:15;10.00;;;1.75;;
70406;SDS011;57821;52.202;0.154;2022-10-16T14:38:48;7.40;;;1.85;;
70406;SDS011;57821;52.202;0.154;2022-10-16T14:41:24;13.85;;;2.58;;
70406;SDS011;57821;52.202;0.154;2022-10-16T14:43:52;11.95;;;2.45;;
70406;SDS011;57821;52.202;0.154;2022-10-16T14:46:21;13.60;;;2.50;;
70406;SDS011;57821;52.202;0.154;2022-10-16T14:48:59;10.82;;;1.70;;
70406;SDS011;57821;52.202;0.154;2022-10-16T14:51:29;11.07;;;2.35;;
70406;SDS011;57821;52.202;0.154;2022-10-16T14:53:56;10.82;;;2.10;;
70406;SDS011;57821;52.202;0.154;2022-10-16T14:56:27;13.38;;;2.70;;
70406;SDS011;57821;52.202;0.154;2022-10-16T14:58:58;11.52;;;2.40;;
70406;SDS011;57821;52.202;0.154;2022-10-16T15:01:26;11.88;;;2.08;;
70406;SDS011;57821;52.202;0.154;2022-10-16T15:03:52;11.43;;;3.25;;
70406;SDS011;57821;52.202;0.154;2022-10-16T15:06:19;14.38;;;2.28;;
70406;SDS011;57821;52.202;0.154;2022-10-16T15:08:45;8.90;;;2.13;;
70406;SDS011;57821;52.202;0.154;2022-10-16T15:11:12;18.30;;;2.75;;
70406;SDS011;57821;52.202;0.154;2022-10-16T15:13:41;10.73;;;2.35;;
70406;SDS011;57821;52.202;0.154;2022-10-16T15:16:11;11.50;;;2.22;;
70406;SDS011;57821;52.202;0.154;2022-10-16T15:18:39;16.88;;;2.42;;
70406;SDS011;57821;52.202;0.154;2022-10-16T15:21:06;12.35;;;2.28;;
70406;SDS011;57821;52.202;0.154;2022-10-16T15:23:33;11.52;;;2.60;;
70406;SDS011;57821;52.202;0.154;2022-10-16T15:25:59;14.25;;;2.53;;
70406;SDS011;57821;52.202;0.154;2022-10-16T15:28:26;13.65;;;2.50;;
70406;SDS011;57821;52.202;0.154;2022-10-16T15:30:53;12.93;;;2.55;;
70406;SDS011;57821;52.202;0.154;2022-10-16T15:33:24;13.55;;;2.03;;
70406;SDS011;57821;52.202;0.154;2022-10-16T15:35:52;13.20;;;2.60;;
70406;SDS011;57821;52.202;0.154;2022-10-16T15:38:19;10.57;;;2.00;;
70406;SDS011;57821;52.202;0.154;2022-10-16T15:40:48;10.85;;;2.03;;
70406;SDS011;57821;52.202;0.154;2022-10-16T15:43:15;9.98;;;2.00;;
70406;SDS011;57821;52.202;0.154;2022-10-16T15:45:42;11.65;;;1.75;;
70406;SDS011;57821;52.202;0.154;2022-10-16T15:48:12;12.60;;;2.20;;
70406;SDS011;57821;52.202;0.154;2022-10-16T15:50:39;13.13;;;2.17;;
70406;SDS011;57821;52.202;0.154;2022-10-16T15:53:07;10.52;;;2.63;;
70406;SDS011;57821;52.202;0.154;2022-10-16T15:55:33;11.13;;;2.50;;
70406;SDS011;57821;52.202;0.154;2022-10-16T15:58:00;12.20;;;2.67;;
70406;SDS011;57821;52.202;0.154;2022-10-16T16:00:27;12.52;;;2.42;;
70406;SDS011;57821;52.202;0.154;2022-10-16T16:02:53;15.77;;;2.75;;
70406;SDS011;57821;52.202;0.154;2022-10-16T16:05:21;13.13;;;2.80;;
70406;SDS011;57821;52.202;0.154;2022-10-16T16:07:48;16.55;;;3.00;;
70406;SDS011;57821;52.202;0.154;2022-10-16T16:10:15;12.05;;;3.70;;
70406;SDS011;57821;52.202;0.154;2022-10-16T16:12:42;13.27;;;2.33;;
70406;SDS011;57821;52.202;0.154;2022-10-16T16:15:09;8.98;;;2.13;;
70406;SDS011;57821;52.202;0.154;2022-10-16T16:17:36;13.85;;;2.72;;
70406;SDS011;57821;52.202;0.154;2022-10-16T16:20:03;12.60;;;2.25;;
70406;SDS011;57821;52.202;0.154;2022-10-16T16:22:31;12.63;;;2.15;;
70406;SDS011;57821;52.202;0.154;2022-10-16T16:24:57;10.15;;;2.17;;
70406;SDS011;57821;52.202;0.154;2022-10-16T16:27:24;14.18;;;2.03;;
70406;SDS011;57821;52.202;0.154;2022-10-16T16:29:51;9.10;;;1.77;;
70406;SDS011;57821;52.202;0.154;2022-10-16T16:32:17;10.20;;;2.08;;
70406;SDS011;57821;52.202;0.154;2022-10-16T16:34:44;12.02;;;2.47;;
70406;SDS011;57821;52.202;0.154;2022-10-16T16:37:10;10.98;;;2.63;;